Archival Weather

Prince Abdulmajeed Bin Abdula

Prince Abdulmajeed Bin Abdula, Saudi Arabia (OEAO)

Report from: Monday, May 23, 2022 8:00 PM UTC
Current time: Tuesday, August 16, 2022 7:12 AM UTC

Current weather
Weather history
Weather forecast

Temperature31.0°C (87.8°F)
Heat index28.9°C (84.1°F)
Dew point-5.0°C (23.0°F)
Winds 6 kts (3.1 m/s, 6.9 mph) North-Northeast (30°)
Clouds Sky clear
Altimeter29.85 in.Hg (1011 mB)
Relative humidity9 %
Density altitude1,979 ft. (603 m)
Remarks Ceiling and visibility OK
No significant changes expected in the next two hours
Flight conditions Visual Meteorological Conditions
Raw dataOEAO 232000Z 03006KT CAVOK 31/M05 Q1011 NOSIG
An error has occurred. This application may no longer respond until reloaded. Reload 🗙